Stations météo

réclame
Mon MeteoGroup
Arcen aws, Pays-Bas (6391): Température de l'air & dewpoint: 12.08.2018 02:00:00 - 18.08.2018 02:00:00 (CEST)Arcen aws, Pays-Bas (6391): Température de l'air 5cm: 12.08.2018 02:00:00 - 18.08.2018 02:00:00 (CEST)Arcen aws, Pays-Bas (6391): Vitesse du vent & gusts: 12.08.2018 02:00:00 - 18.08.2018 02:00:00 (CEST)Arcen aws, Pays-Bas (6391): Direction du vent: 12.08.2018 02:00:00 - 18.08.2018 02:00:00 (CEST)Arcen aws, Pays-Bas (6391): Quantités de précipitations: 12.08.2018 02:00:00 - 18.08.2018 02:00:00 (CEST)
Date & Time tt [°C] td [°C] tt 5cm [°C] ff [km/h] ff [knt] fx [km/h] fx [knt] dd rr [mm]
18.08.2018 02:00:00 12,0 11,2 10,8 0 0 4 2 N 0,0
18.08.2018 01:00:00 12,5 11,8 11,5 0 0 4 2 N 0,0
18.08.2018 00:00:00 13,3 12,3 12,4 0 0 7 4 N 0,0
17.08.2018 23:00:00 14,7 12,7 13,4 0 0 7 4 N 0,0
17.08.2018 22:00:00 16,3 12,7 14,8 4 2 7 4 NW 0,0
17.08.2018 21:00:00 17,8 13,2 16,8 4 2 14 8 NW 0,0
17.08.2018 20:00:00 20,1 13,2 19,8 4 2 11 6 WNW 0,0
17.08.2018 19:00:00 22,6 12,0 23,8 7 4 18 10 WNW 0,0
17.08.2018 18:00:00 23,6 11,2 25,5 4 2 18 10 WNW 0,0
17.08.2018 17:00:00 23,9 10,6 26,2 4 2 14 8 W 0,0
17.08.2018 16:00:00 23,8 9,5 26,5 4 2 18 10 WNW 0,0
17.08.2018 15:00:00 23,5 11,1 25,6 7 4 22 12 WNW 0,0
17.08.2018 14:00:00 22,6 11,9 24,1 7 4 18 10 N 0,0
17.08.2018 13:00:00 20,8 13,2 23,0 7 4 14 8 N 0,0
17.08.2018 12:00:00 18,5 15,4 19,7 7 4 11 6 NNW 0,0
17.08.2018 11:00:00 16,9 15,6 17,4 4 2 18 10 NW 0,0
17.08.2018 10:00:00 16,7 15,7 17,2 4 2 14 8 NW 0,0
17.08.2018 09:00:00 16,6 16,2 16,6 4 2 7 4 NW 0,3
17.08.2018 08:00:00 16,2 15,7 16,2 4 2 7 4 SE 2,6
17.08.2018 07:00:00 16,1 15,8 16,1 4 2 11 6 NE 5,4
17.08.2018 06:00:00 16,1 15,7 16,2 4 2 11 6 NW 2,5
17.08.2018 05:00:00 16,9 15,1 16,7 4 2 18 10 WNW 0,6
17.08.2018 04:00:00 17,6 14,6 17,4 7 4 18 10 NNW 0,0
17.08.2018 03:00:00 17,0 14,4 16,7 11 6 22 12 NNW 0,0
17.08.2018 02:00:00 17,0 15,2 16,9 11 6 14 8 NNW 0,0
17.08.2018 01:00:00 17,6 15,3 17,2 4 2 7 4 N 0,0
17.08.2018 00:00:00 16,7 14,9 15,9 4 2 7 4 NNE 0,0
16.08.2018 23:00:00 17,6 15,2 16,6 4 2 7 4 NNE 0,0
16.08.2018 22:00:00 19,6 15,2 18,5 4 2 14 8 N 0,0
16.08.2018 21:00:00 21,2 15,3 20,3 7 4 11 6 N 0,0
16.08.2018 20:00:00 24,1 15,2 23,7 7 4 14 8 N 0,0
16.08.2018 19:00:00 25,9 14,9 27,2 4 2 11 6 W 0,0
16.08.2018 18:00:00 26,4 15,0 28,3 4 2 11 6 W 0,0
16.08.2018 17:00:00 26,6 14,6 29,2 4 2 14 8 WSW 0,0
16.08.2018 16:00:00 25,7 14,4 28,3 7 4 18 10 SSW 0,0
16.08.2018 15:00:00 25,3 14,4 28,7 7 4 22 12 WSW 0,0
16.08.2018 14:00:00 24,3 14,7 26,8 7 4 22 12 WSW 0,0
16.08.2018 13:00:00 22,7 14,4 23,9 11 6 25 14 WSW 0,0
16.08.2018 12:00:00 21,3 13,9 22,4 14 8 25 14 WSW 0,0
16.08.2018 11:00:00 21,0 14,5 22,0 11 6 22 12 SSW 0,0
16.08.2018 10:00:00 19,8 14,9 20,0 7 4 14 8 SSW 0,0
16.08.2018 09:00:00 17,9 15,0 17,8 11 6 18 10 S 0,0
16.08.2018 08:00:00 17,1 14,5 16,6 11 6 14 8 SSW 0,0
16.08.2018 07:00:00 14,9 14,0 13,9 7 4 11 6 SSW 0,0
16.08.2018 06:00:00 14,5 13,8 13,7 4 2 7 4 S 0,0
16.08.2018 05:00:00 15,1 14,1 14,1 4 2 11 6 S 0,0
16.08.2018 04:00:00 15,2 14,4 14,2 4 2 11 6 S 0,0
16.08.2018 03:00:00 15,6 14,9 14,5 4 2 7 4 SSW 0,0
16.08.2018 02:00:00 15,9 15,0 15,1 4 2 7 4 S 0,0
16.08.2018 01:00:00 16,2 15,2 15,0 4 2 7 4 SSE 0,0
16.08.2018 00:00:00 16,8 15,3 15,8 4 2 7 4 S 0,0
15.08.2018 23:00:00 16,6 15,6 15,1 4 2 7 4 SW 0,0
15.08.2018 22:00:00 17,9 15,7 16,4 4 2 11 6 WSW 0,0
15.08.2018 21:00:00 19,5 15,7 18,7 4 2 14 8 WSW 0,0
15.08.2018 20:00:00 21,4 15,8 21,4 11 6 22 12 WSW 0,0
15.08.2018 19:00:00 22,9 16,3 23,1 7 4 14 8 SW 0,0
15.08.2018 18:00:00 22,3 16,0 22,7 7 4 18 10 W 0,0
15.08.2018 17:00:00 22,7 15,9 23,3 7 4 18 10 WSW 0,0
15.08.2018 16:00:00 23,3 15,7 24,8 7 4 25 14 WSW 0,0
15.08.2018 15:00:00 22,8 16,4 24,0 11 6 22 12 SSW 0,0
15.08.2018 14:00:00 21,3 16,4 22,6 7 4 25 14 SW 0,0
15.08.2018 13:00:00 20,5 16,4 21,4 11 6 22 12 SW 0,0
15.08.2018 12:00:00 20,5 16,3 22,0 11 6 22 12 SSW 0,0
15.08.2018 11:00:00 19,5 15,8 20,6 7 4 18 10 WSW 0,0
15.08.2018 10:00:00 18,6 15,3 19,3 7 4 22 12 WSW 0,0
15.08.2018 09:00:00 17,4 14,7 17,6 7 4 18 10 SW 0,0
15.08.2018 08:00:00 16,6 14,1 16,5 7 4 14 8 SW 0,0
15.08.2018 07:00:00 16,1 13,9 15,6 7 4 14 8 SW 0,0
15.08.2018 06:00:00 16,3 13,8 15,8 7 4 14 8 SW 0,0
15.08.2018 05:00:00 16,6 13,6 15,7 4 2 11 6 SW 0,0
15.08.2018 04:00:00 17,0 13,6 16,3 7 4 11 6 SW 0,0
15.08.2018 03:00:00 17,6 13,7 17,3 4 2 11 6 WSW 0,0
15.08.2018 02:00:00 17,4 13,6 17,0 4 2 7 4 SW 0,0
15.08.2018 01:00:00 17,3 13,1 16,9 4 2 11 6 SW 0,0
15.08.2018 00:00:00 16,9 12,8 15,9 4 2 11 6 WSW 0,0
14.08.2018 23:00:00 17,3 13,3 16,2 4 2 14 8 W 0,0
14.08.2018 22:00:00 18,7 15,9 18,3 4 2 7 4 SW 0,0
14.08.2018 21:00:00 20,1 15,6 20,1 4 2 11 6 WNW 0,0
14.08.2018 20:00:00 20,7 15,5 21,0 4 2 18 10 NW 0,0
14.08.2018 19:00:00 22,2 15,5 23,2 7 4 22 12 WNW 0,0
14.08.2018 18:00:00 22,3 14,9 23,1 7 4 25 14 W 0,0
14.08.2018 17:00:00 25,6 13,7 28,2 11 6 29 16 WNW 0,0
14.08.2018 16:00:00 25,2 13,0 27,7 11 6 29 16 WNW 0,0
14.08.2018 15:00:00 24,1 13,6 26,3 11 6 29 16 W 0,0
14.08.2018 14:00:00 23,9 14,5 24,6 11 6 29 16 W 0,0
14.08.2018 13:00:00 22,2 14,2 24,1 7 4 29 16 W 0,0
14.08.2018 12:00:00 20,9 15,2 22,1 11 6 29 16 W 0,0
14.08.2018 11:00:00 21,2 14,3 21,4 7 4 32 18 W 0,0
14.08.2018 10:00:00 18,8 15,7 19,7 7 4 18 10 W 0,0
14.08.2018 09:00:00 17,7 16,7 17,7 7 4 18 10 WSW 0,0
14.08.2018 08:00:00 17,0 16,5 17,0 11 6 18 10 WSW 0,0
14.08.2018 07:00:00 16,7 16,1 16,7 11 6 25 14 WSW 0,3
14.08.2018 06:00:00 16,9 15,9 16,8 11 6 22 12 WSW 0,0
14.08.2018 05:00:00 16,8 15,9 16,7 11 6 22 12 SW 0,0
14.08.2018 04:00:00 16,6 15,8 16,5 11 6 22 12 SW 0,0
14.08.2018 03:00:00 16,5 15,9 16,3 11 6 18 10 SW 0,0
14.08.2018 02:00:00 16,5 15,9 16,1 7 4 14 8 SW 0,0
14.08.2018 01:00:00 15,7 15,2 15,0 7 4 14 8 WSW 0,0
14.08.2018 00:00:00 15,8 15,4 15,3 7 4 14 8 WSW 0,0
13.08.2018 23:00:00 15,9 15,4 15,1 7 4 11 6 SW 0,0
13.08.2018 22:00:00 16,0 15,4 15,7 4 2 11 6 S 0,4
13.08.2018 21:00:00 16,0 15,2 16,0 4 2 11 6 SW 0,3
13.08.2018 20:00:00 16,8 15,3 17,0 4 2 14 8 WSW 0,7
13.08.2018 19:00:00 18,6 16,5 18,8 4 2 14 8 W 0,0
13.08.2018 18:00:00 19,8 16,1 20,5 4 2 14 8 WSW 0,1
13.08.2018 17:00:00 19,4 17,4 20,2 11 6 22 12 WSW 0,2
13.08.2018 16:00:00 18,2 16,7 18,3 7 4 40 21 WSW 0,7
13.08.2018 15:00:00 21,3 16,6 22,0 18 10 32 18 SW 0,0
13.08.2018 14:00:00 20,4 17,6 21,0 14 8 32 18 SW 0,1
13.08.2018 13:00:00 19,3 17,8 19,9 11 6 22 12 SSW 1,1
13.08.2018 12:00:00 19,9 17,5 20,9 11 6 18 10 SSW 0,1
13.08.2018 11:00:00 18,3 17,1 18,7 14 8 22 12 SSW 0,8
13.08.2018 10:00:00 17,8 16,9 17,8 7 4 11 6 S 0,0
13.08.2018 09:00:00 16,8 16,0 16,9 4 2 14 8 SW 0,0
13.08.2018 08:00:00 16,0 15,4 16,1 7 4 14 8 SSE 0,8
13.08.2018 07:00:00 16,2 14,8 16,1 7 4 18 10 S 0,4
13.08.2018 06:00:00 15,9 14,1 15,9 7 4 14 8 SW 1,1
13.08.2018 05:00:00 18,5 10,3 17,9 7 4 11 6 SW 0,0
13.08.2018 04:00:00 19,2 10,0 18,4 7 4 14 8 SSE 0,0
13.08.2018 03:00:00 18,5 12,8 17,3 4 2 7 4 ESE 0,0
13.08.2018 02:00:00 18,1 13,4 16,7 4 2 11 6 SE 0,0
13.08.2018 01:00:00 17,4 13,5 16,0 4 2 7 4 SSE 0,0
13.08.2018 00:00:00 17,6 13,4 15,2 4 2 7 4 SSE 0,0
12.08.2018 23:00:00 18,0 14,5 16,1 0 0 4 2 N 0,0
12.08.2018 22:00:00 19,6 15,2 18,0 0 0 4 2 N 0,0
12.08.2018 21:00:00 21,8 14,4 20,9 0 0 4 2 N 0,0
12.08.2018 20:00:00 24,5 11,6 24,3 0 0 11 6 N 0,0
12.08.2018 19:00:00 27,6 9,6 29,2 7 4 18 10 SW 0,0
12.08.2018 18:00:00 28,4 9,7 30,7 7 4 18 10 SSW 0,0
12.08.2018 17:00:00 28,2 9,8 31,3 7 4 22 12 SSW 0,0
12.08.2018 16:00:00 27,4 9,9 29,8 7 4 25 14 SSW 0,0
12.08.2018 15:00:00 27,7 9,9 30,7 11 6 25 14 S 0,0
12.08.2018 14:00:00 26,5 11,1 29,4 11 6 25 14 SSW 0,0
12.08.2018 13:00:00 25,8 10,3 28,8 11 6 25 14 SSW 0,0
12.08.2018 12:00:00 24,7 10,8 27,0 14 8 25 14 SSW 0,0
12.08.2018 11:00:00 22,6 8,9 24,8 11 6 18 10 S 0,0
12.08.2018 10:00:00 19,7 9,9 20,6 7 4 18 10 S 0,0
12.08.2018 09:00:00 17,1 9,8 17,5 7 4 11 6 SSE 0,0
12.08.2018 08:00:00 15,2 9,7 14,6 11 6 14 8 SSE 0,0
12.08.2018 07:00:00 13,6 9,0 12,9 7 4 14 8 SSE 0,0
12.08.2018 06:00:00 12,5 8,8 10,5 4 2 7 4 SSE 0,0
12.08.2018 05:00:00 11,7 9,4 9,7 7 4 7 4 S 0,0
12.08.2018 04:00:00 11,9 10,1 10,0 7 4 11 6 SSE 0,0
12.08.2018 03:00:00 11,8 10,3 10,3 4 2 7 4 SSE 0,0
12.08.2018 02:00:00 11,8 11,0 10,4 4 2 7 4 SE 0,0

tt = Température de l'air
td = dewpoint
tt 5cm = Température de l'air 5cm
ff = Vitesse du vent
fx = gusts
dd = Direction du vent
rr = Quantités de précipitations

stations d'obs. à proximité